sensor_id;sensor_type;location;lat;lon;timestamp;P1;durP1;ratioP1;P2;durP2;ratioP2
67372;SDS011;54257;54.496;18.412;2022-10-16T00:01:22;42.70;;;26.00;;
67372;SDS011;54257;54.496;18.412;2022-10-16T00:03:53;38.30;;;25.50;;
67372;SDS011;54257;54.496;18.412;2022-10-16T00:06:21;42.70;;;25.70;;
67372;SDS011;54257;54.496;18.412;2022-10-16T00:08:50;42.70;;;25.40;;
67372;SDS011;54257;54.496;18.412;2022-10-16T00:11:23;41.00;;;25.10;;
67372;SDS011;54257;54.496;18.412;2022-10-16T00:13:53;39.30;;;25.30;;
67372;SDS011;54257;54.496;18.412;2022-10-16T00:16:23;40.40;;;26.30;;
67372;SDS011;54257;54.496;18.412;2022-10-16T00:18:50;39.90;;;26.10;;
67372;SDS011;54257;54.496;18.412;2022-10-16T00:21:22;44.00;;;27.30;;
67372;SDS011;54257;54.496;18.412;2022-10-16T00:23:54;43.10;;;27.50;;
67372;SDS011;54257;54.496;18.412;2022-10-16T00:26:27;37.80;;;26.00;;
67372;SDS011;54257;54.496;18.412;2022-10-16T00:28:55;38.70;;;23.70;;
67372;SDS011;54257;54.496;18.412;2022-10-16T00:31:22;38.90;;;24.00;;
67372;SDS011;54257;54.496;18.412;2022-10-16T00:33:50;41.60;;;25.90;;
67372;SDS011;54257;54.496;18.412;2022-10-16T00:36:18;42.20;;;26.60;;
67372;SDS011;54257;54.496;18.412;2022-10-16T00:38:52;36.20;;;24.10;;
67372;SDS011;54257;54.496;18.412;2022-10-16T00:41:21;38.00;;;24.80;;
67372;SDS011;54257;54.496;18.412;2022-10-16T00:43:54;37.80;;;25.20;;
67372;SDS011;54257;54.496;18.412;2022-10-16T00:51:50;33.30;;;23.20;;
67372;SDS011;54257;54.496;18.412;2022-10-16T00:54:21;36.50;;;22.60;;
67372;SDS011;54257;54.496;18.412;2022-10-16T00:56:57;37.70;;;21.90;;
67372;SDS011;54257;54.496;18.412;2022-10-16T00:59:28;33.40;;;21.20;;
67372;SDS011;54257;54.496;18.412;2022-10-16T01:01:58;33.40;;;22.00;;
67372;SDS011;54257;54.496;18.412;2022-10-16T01:04:26;36.70;;;23.00;;
67372;SDS011;54257;54.496;18.412;2022-10-16T01:17:58;28.40;;;19.30;;
67372;SDS011;54257;54.496;18.412;2022-10-16T01:20:42;35.20;;;20.20;;
67372;SDS011;54257;54.496;18.412;2022-10-16T01:25:56;28.90;;;18.60;;
67372;SDS011;54257;54.496;18.412;2022-10-16T01:29:26;27.20;;;18.80;;
67372;SDS011;54257;54.496;18.412;2022-10-16T01:31:40;31.20;;;21.40;;
67372;SDS011;54257;54.496;18.412;2022-10-16T01:34:18;31.50;;;21.00;;
67372;SDS011;54257;54.496;18.412;2022-10-16T01:36:56;28.00;;;19.60;;
67372;SDS011;54257;54.496;18.412;2022-10-16T01:39:29;31.50;;;20.40;;
67372;SDS011;54257;54.496;18.412;2022-10-16T01:42:13;34.60;;;21.60;;
67372;SDS011;54257;54.496;18.412;2022-10-16T01:44:46;30.80;;;20.60;;
67372;SDS011;54257;54.496;18.412;2022-10-16T01:47:15;28.90;;;20.00;;
67372;SDS011;54257;54.496;18.412;2022-10-16T01:49:46;28.40;;;19.80;;
67372;SDS011;54257;54.496;18.412;2022-10-16T01:52:15;31.70;;;21.00;;
67372;SDS011;54257;54.496;18.412;2022-10-16T01:54:47;25.80;;;19.30;;
67372;SDS011;54257;54.496;18.412;2022-10-16T01:57:20;29.10;;;20.40;;
67372;SDS011;54257;54.496;18.412;2022-10-16T01:59:49;26.60;;;18.80;;
67372;SDS011;54257;54.496;18.412;2022-10-16T02:02:20;28.00;;;19.70;;
67372;SDS011;54257;54.496;18.412;2022-10-16T02:04:51;29.90;;;20.70;;
67372;SDS011;54257;54.496;18.412;2022-10-16T02:07:25;27.50;;;19.40;;
67372;SDS011;54257;54.496;18.412;2022-10-16T02:09:53;28.90;;;20.40;;
67372;SDS011;54257;54.496;18.412;2022-10-16T02:12:28;23.10;;;17.20;;
67372;SDS011;54257;54.496;18.412;2022-10-16T02:14:59;27.20;;;19.30;;
67372;SDS011;54257;54.496;18.412;2022-10-16T02:17:26;26.70;;;19.70;;
67372;SDS011;54257;54.496;18.412;2022-10-16T02:19:53;24.40;;;18.90;;
67372;SDS011;54257;54.496;18.412;2022-10-16T02:22:30;27.70;;;18.50;;
67372;SDS011;54257;54.496;18.412;2022-10-16T02:25:06;25.80;;;18.30;;
67372;SDS011;54257;54.496;18.412;2022-10-16T02:30:58;25.20;;;17.70;;
67372;SDS011;54257;54.496;18.412;2022-10-16T02:33:29;25.20;;;18.30;;
67372;SDS011;54257;54.496;18.412;2022-10-16T02:35:58;26.50;;;17.80;;
67372;SDS011;54257;54.496;18.412;2022-10-16T02:38:25;23.90;;;18.00;;
67372;SDS011;54257;54.496;18.412;2022-10-16T02:40:54;23.70;;;17.80;;
67372;SDS011;54257;54.496;18.412;2022-10-16T02:43:21;22.40;;;16.80;;
67372;SDS011;54257;54.496;18.412;2022-10-16T02:45:48;24.60;;;18.60;;
67372;SDS011;54257;54.496;18.412;2022-10-16T02:48:15;23.00;;;18.40;;
67372;SDS011;54257;54.496;18.412;2022-10-16T02:50:42;22.80;;;17.60;;
67372;SDS011;54257;54.496;18.412;2022-10-16T02:53:09;24.00;;;17.40;;
67372;SDS011;54257;54.496;18.412;2022-10-16T02:55:36;25.40;;;18.50;;
67372;SDS011;54257;54.496;18.412;2022-10-16T02:58:03;24.70;;;18.20;;
67372;SDS011;54257;54.496;18.412;2022-10-16T03:00:30;25.20;;;18.10;;
67372;SDS011;54257;54.496;18.412;2022-10-16T03:02:56;26.00;;;17.30;;
67372;SDS011;54257;54.496;18.412;2022-10-16T03:05:23;25.60;;;19.20;;
67372;SDS011;54257;54.496;18.412;2022-10-16T03:07:50;22.90;;;17.50;;
67372;SDS011;54257;54.496;18.412;2022-10-16T03:10:19;24.40;;;18.30;;
67372;SDS011;54257;54.496;18.412;2022-10-16T03:12:46;25.30;;;18.10;;
67372;SDS011;54257;54.496;18.412;2022-10-16T03:15:14;23.30;;;18.40;;
67372;SDS011;54257;54.496;18.412;2022-10-16T03:17:41;25.20;;;18.70;;
67372;SDS011;54257;54.496;18.412;2022-10-16T03:20:08;24.70;;;17.60;;
67372;SDS011;54257;54.496;18.412;2022-10-16T03:22:35;23.30;;;17.40;;
67372;SDS011;54257;54.496;18.412;2022-10-16T03:25:02;22.00;;;16.50;;
67372;SDS011;54257;54.496;18.412;2022-10-16T03:27:30;24.30;;;17.40;;
67372;SDS011;54257;54.496;18.412;2022-10-16T03:29:57;23.90;;;17.90;;
67372;SDS011;54257;54.496;18.412;2022-10-16T03:32:23;24.40;;;18.60;;
67372;SDS011;54257;54.496;18.412;2022-10-16T03:34:51;23.10;;;16.60;;
67372;SDS011;54257;54.496;18.412;2022-10-16T03:37:20;25.30;;;17.40;;
67372;SDS011;54257;54.496;18.412;2022-10-16T03:39:47;23.40;;;17.00;;
67372;SDS011;54257;54.496;18.412;2022-10-16T03:42:14;21.10;;;16.60;;
67372;SDS011;54257;54.496;18.412;2022-10-16T03:44:42;21.80;;;17.20;;
67372;SDS011;54257;54.496;18.412;2022-10-16T03:47:09;23.90;;;16.50;;
67372;SDS011;54257;54.496;18.412;2022-10-16T03:49:36;21.70;;;16.70;;
67372;SDS011;54257;54.496;18.412;2022-10-16T03:52:03;21.50;;;18.00;;
67372;SDS011;54257;54.496;18.412;2022-10-16T03:54:33;21.90;;;16.80;;
67372;SDS011;54257;54.496;18.412;2022-10-16T03:57:01;23.50;;;17.10;;
67372;SDS011;54257;54.496;18.412;2022-10-16T03:59:27;22.70;;;17.20;;
67372;SDS011;54257;54.496;18.412;2022-10-16T04:01:54;23.20;;;17.20;;
67372;SDS011;54257;54.496;18.412;2022-10-16T04:04:21;22.60;;;17.80;;
67372;SDS011;54257;54.496;18.412;2022-10-16T04:06:48;24.00;;;18.10;;
67372;SDS011;54257;54.496;18.412;2022-10-16T04:09:15;24.50;;;18.70;;
67372;SDS011;54257;54.496;18.412;2022-10-16T04:11:42;22.60;;;17.20;;
67372;SDS011;54257;54.496;18.412;2022-10-16T04:14:09;24.30;;;17.70;;
67372;SDS011;54257;54.496;18.412;2022-10-16T04:16:36;24.20;;;17.70;;
67372;SDS011;54257;54.496;18.412;2022-10-16T04:19:02;23.00;;;18.30;;
67372;SDS011;54257;54.496;18.412;2022-10-16T04:21:30;26.10;;;18.60;;
67372;SDS011;54257;54.496;18.412;2022-10-16T04:23:56;26.30;;;19.80;;
67372;SDS011;54257;54.496;18.412;2022-10-16T04:26:23;23.30;;;16.60;;
67372;SDS011;54257;54.496;18.412;2022-10-16T04:28:50;25.50;;;18.80;;
67372;SDS011;54257;54.496;18.412;2022-10-16T04:31:17;23.40;;;19.50;;
67372;SDS011;54257;54.496;18.412;2022-10-16T04:33:45;26.70;;;19.70;;
67372;SDS011;54257;54.496;18.412;2022-10-16T04:36:12;25.30;;;18.60;;
67372;SDS011;54257;54.496;18.412;2022-10-16T04:38:39;28.70;;;19.50;;
67372;SDS011;54257;54.496;18.412;2022-10-16T04:41:06;28.40;;;20.00;;
67372;SDS011;54257;54.496;18.412;2022-10-16T04:43:34;27.70;;;20.40;;
67372;SDS011;54257;54.496;18.412;2022-10-16T04:46:01;26.40;;;19.40;;
67372;SDS011;54257;54.496;18.412;2022-10-16T04:48:28;24.70;;;19.30;;
67372;SDS011;54257;54.496;18.412;2022-10-16T04:50:57;28.50;;;20.70;;
67372;SDS011;54257;54.496;18.412;2022-10-16T04:53:26;25.70;;;20.00;;
67372;SDS011;54257;54.496;18.412;2022-10-16T04:55:53;25.50;;;20.00;;
67372;SDS011;54257;54.496;18.412;2022-10-16T04:58:20;30.90;;;22.00;;
67372;SDS011;54257;54.496;18.412;2022-10-16T05:00:47;26.90;;;20.50;;
67372;SDS011;54257;54.496;18.412;2022-10-16T05:03:14;29.40;;;22.30;;
67372;SDS011;54257;54.496;18.412;2022-10-16T05:05:44;28.30;;;21.70;;
67372;SDS011;54257;54.496;18.412;2022-10-16T05:08:13;27.80;;;20.00;;
67372;SDS011;54257;54.496;18.412;2022-10-16T05:10:41;27.70;;;21.30;;
67372;SDS011;54257;54.496;18.412;2022-10-16T05:13:09;34.10;;;23.10;;
67372;SDS011;54257;54.496;18.412;2022-10-16T05:15:37;30.80;;;21.90;;
67372;SDS011;54257;54.496;18.412;2022-10-16T05:18:04;28.50;;;20.60;;
67372;SDS011;54257;54.496;18.412;2022-10-16T05:20:30;30.20;;;21.60;;
67372;SDS011;54257;54.496;18.412;2022-10-16T05:22:57;29.90;;;22.20;;
67372;SDS011;54257;54.496;18.412;2022-10-16T05:25:25;30.90;;;22.90;;
67372;SDS011;54257;54.496;18.412;2022-10-16T05:27:53;31.00;;;21.70;;
67372;SDS011;54257;54.496;18.412;2022-10-16T05:30:20;28.50;;;20.80;;
67372;SDS011;54257;54.496;18.412;2022-10-16T05:32:48;30.30;;;22.20;;
67372;SDS011;54257;54.496;18.412;2022-10-16T05:35:16;29.70;;;24.00;;
67372;SDS011;54257;54.496;18.412;2022-10-16T05:37:44;30.60;;;22.40;;
67372;SDS011;54257;54.496;18.412;2022-10-16T05:40:12;30.10;;;21.90;;
67372;SDS011;54257;54.496;18.412;2022-10-16T05:42:40;29.60;;;22.10;;
67372;SDS011;54257;54.496;18.412;2022-10-16T05:45:08;31.20;;;22.40;;
67372;SDS011;54257;54.496;18.412;2022-10-16T05:47:38;29.00;;;22.40;;
67372;SDS011;54257;54.496;18.412;2022-10-16T05:50:06;28.10;;;21.50;;
67372;SDS011;54257;54.496;18.412;2022-10-16T05:52:33;28.70;;;22.20;;
67372;SDS011;54257;54.496;18.412;2022-10-16T05:55:00;30.20;;;21.50;;
67372;SDS011;54257;54.496;18.412;2022-10-16T05:57:28;28.90;;;23.40;;
67372;SDS011;54257;54.496;18.412;2022-10-16T05:59:56;28.20;;;20.90;;
67372;SDS011;54257;54.496;18.412;2022-10-16T06:02:23;30.50;;;22.50;;
67372;SDS011;54257;54.496;18.412;2022-10-16T06:04:53;29.20;;;21.30;;
67372;SDS011;54257;54.496;18.412;2022-10-16T06:07:21;30.70;;;21.90;;
67372;SDS011;54257;54.496;18.412;2022-10-16T06:09:49;28.70;;;21.80;;
67372;SDS011;54257;54.496;18.412;2022-10-16T06:12:16;29.30;;;22.40;;
67372;SDS011;54257;54.496;18.412;2022-10-16T06:14:44;25.40;;;21.00;;
67372;SDS011;54257;54.496;18.412;2022-10-16T06:17:13;28.00;;;21.10;;
67372;SDS011;54257;54.496;18.412;2022-10-16T06:19:41;31.80;;;23.30;;
67372;SDS011;54257;54.496;18.412;2022-10-16T06:22:08;27.40;;;21.80;;
67372;SDS011;54257;54.496;18.412;2022-10-16T06:24:35;29.00;;;22.30;;
67372;SDS011;54257;54.496;18.412;2022-10-16T06:27:03;29.20;;;22.00;;
67372;SDS011;54257;54.496;18.412;2022-10-16T06:29:31;28.30;;;21.70;;
67372;SDS011;54257;54.496;18.412;2022-10-16T06:31:58;27.60;;;20.60;;
67372;SDS011;54257;54.496;18.412;2022-10-16T06:34:25;25.00;;;20.40;;
67372;SDS011;54257;54.496;18.412;2022-10-16T06:36:52;26.30;;;19.40;;
67372;SDS011;54257;54.496;18.412;2022-10-16T06:39:19;24.40;;;18.60;;
67372;SDS011;54257;54.496;18.412;2022-10-16T06:41:46;22.40;;;17.30;;
67372;SDS011;54257;54.496;18.412;2022-10-16T06:44:13;21.60;;;18.10;;
67372;SDS011;54257;54.496;18.412;2022-10-16T06:46:40;20.70;;;16.70;;
67372;SDS011;54257;54.496;18.412;2022-10-16T06:49:07;20.50;;;17.00;;
67372;SDS011;54257;54.496;18.412;2022-10-16T06:51:35;20.60;;;17.60;;
67372;SDS011;54257;54.496;18.412;2022-10-16T06:54:07;17.80;;;15.30;;
67372;SDS011;54257;54.496;18.412;2022-10-16T06:56:34;20.90;;;16.40;;
67372;SDS011;54257;54.496;18.412;2022-10-16T06:59:02;19.10;;;15.80;;
67372;SDS011;54257;54.496;18.412;2022-10-16T07:01:29;19.00;;;15.30;;
67372;SDS011;54257;54.496;18.412;2022-10-16T07:03:56;19.40;;;16.50;;
67372;SDS011;54257;54.496;18.412;2022-10-16T07:06:24;20.10;;;15.60;;
67372;SDS011;54257;54.496;18.412;2022-10-16T07:08:57;18.10;;;15.00;;
67372;SDS011;54257;54.496;18.412;2022-10-16T07:11:24;17.50;;;14.90;;
67372;SDS011;54257;54.496;18.412;2022-10-16T07:13:51;21.20;;;16.80;;
67372;SDS011;54257;54.496;18.412;2022-10-16T07:16:19;18.00;;;15.80;;
67372;SDS011;54257;54.496;18.412;2022-10-16T07:18:47;17.20;;;14.00;;
67372;SDS011;54257;54.496;18.412;2022-10-16T07:21:18;16.90;;;14.30;;
67372;SDS011;54257;54.496;18.412;2022-10-16T07:23:52;16.70;;;14.20;;
67372;SDS011;54257;54.496;18.412;2022-10-16T07:26:20;19.30;;;14.60;;
67372;SDS011;54257;54.496;18.412;2022-10-16T07:28:48;14.80;;;12.80;;
67372;SDS011;54257;54.496;18.412;2022-10-16T07:31:18;15.40;;;13.30;;
67372;SDS011;54257;54.496;18.412;2022-10-16T07:33:47;16.30;;;14.60;;
67372;SDS011;54257;54.496;18.412;2022-10-16T07:36:16;15.40;;;13.30;;
67372;SDS011;54257;54.496;18.412;2022-10-16T07:38:45;15.70;;;13.20;;
67372;SDS011;54257;54.496;18.412;2022-10-16T07:41:15;15.70;;;13.00;;
67372;SDS011;54257;54.496;18.412;2022-10-16T07:43:46;16.70;;;13.00;;
67372;SDS011;54257;54.496;18.412;2022-10-16T07:46:20;16.90;;;13.90;;
67372;SDS011;54257;54.496;18.412;2022-10-16T07:48:57;14.40;;;12.80;;
67372;SDS011;54257;54.496;18.412;2022-10-16T07:51:27;18.10;;;14.90;;
67372;SDS011;54257;54.496;18.412;2022-10-16T07:53:59;16.20;;;13.80;;
67372;SDS011;54257;54.496;18.412;2022-10-16T07:56:32;17.60;;;14.90;;
67372;SDS011;54257;54.496;18.412;2022-10-16T07:58:59;16.10;;;14.10;;
67372;SDS011;54257;54.496;18.412;2022-10-16T08:01:26;16.70;;;14.50;;
67372;SDS011;54257;54.496;18.412;2022-10-16T08:03:55;18.40;;;15.60;;
67372;SDS011;54257;54.496;18.412;2022-10-16T08:06:24;22.20;;;16.40;;
67372;SDS011;54257;54.496;18.412;2022-10-16T08:08:52;17.10;;;14.90;;
67372;SDS011;54257;54.496;18.412;2022-10-16T08:11:19;20.40;;;16.00;;
67372;SDS011;54257;54.496;18.412;2022-10-16T08:13:46;20.50;;;18.00;;
67372;SDS011;54257;54.496;18.412;2022-10-16T08:16:13;20.90;;;15.90;;
67372;SDS011;54257;54.496;18.412;2022-10-16T08:18:40;20.40;;;16.70;;
67372;SDS011;54257;54.496;18.412;2022-10-16T08:21:12;24.20;;;18.20;;
67372;SDS011;54257;54.496;18.412;2022-10-16T08:26:07;22.20;;;18.20;;
67372;SDS011;54257;54.496;18.412;2022-10-16T08:28:36;23.30;;;18.90;;
67372;SDS011;54257;54.496;18.412;2022-10-16T08:33:33;24.90;;;19.00;;
67372;SDS011;54257;54.496;18.412;2022-10-16T08:36:02;28.70;;;21.70;;
67372;SDS011;54257;54.496;18.412;2022-10-16T08:38:30;27.40;;;21.30;;
67372;SDS011;54257;54.496;18.412;2022-10-16T08:46:34;26.50;;;20.50;;
67372;SDS011;54257;54.496;18.412;2022-10-16T08:49:15;30.00;;;23.00;;
67372;SDS011;54257;54.496;18.412;2022-10-16T08:51:42;28.10;;;22.10;;
67372;SDS011;54257;54.496;18.412;2022-10-16T08:54:21;27.60;;;20.30;;
67372;SDS011;54257;54.496;18.412;2022-10-16T08:56:56;30.50;;;22.90;;
67372;SDS011;54257;54.496;18.412;2022-10-16T08:59:27;30.10;;;21.30;;
67372;SDS011;54257;54.496;18.412;2022-10-16T09:01:55;27.30;;;20.50;;
67372;SDS011;54257;54.496;18.412;2022-10-16T09:04:36;29.40;;;22.70;;
67372;SDS011;54257;54.496;18.412;2022-10-16T09:18:29;27.60;;;20.50;;
67372;SDS011;54257;54.496;18.412;2022-10-16T09:21:13;27.60;;;21.00;;
67372;SDS011;54257;54.496;18.412;2022-10-16T09:23:50;31.10;;;23.30;;
67372;SDS011;54257;54.496;18.412;2022-10-16T09:26:18;29.00;;;21.10;;
67372;SDS011;54257;54.496;18.412;2022-10-16T09:28:48;30.30;;;21.70;;
67372;SDS011;54257;54.496;18.412;2022-10-16T09:31:16;32.80;;;24.20;;
67372;SDS011;54257;54.496;18.412;2022-10-16T09:33:47;29.60;;;23.20;;
67372;SDS011;54257;54.496;18.412;2022-10-16T09:36:19;29.20;;;22.10;;
67372;SDS011;54257;54.496;18.412;2022-10-16T09:39:01;31.60;;;24.40;;
67372;SDS011;54257;54.496;18.412;2022-10-16T09:41:40;30.90;;;22.30;;
67372;SDS011;54257;54.496;18.412;2022-10-16T09:44:24;31.90;;;23.50;;
67372;SDS011;54257;54.496;18.412;2022-10-16T09:47:01;30.40;;;22.60;;
67372;SDS011;54257;54.496;18.412;2022-10-16T09:49:29;33.80;;;23.70;;
67372;SDS011;54257;54.496;18.412;2022-10-16T09:52:09;33.00;;;23.10;;
67372;SDS011;54257;54.496;18.412;2022-10-16T09:54:49;30.40;;;23.00;;
67372;SDS011;54257;54.496;18.412;2022-10-16T09:57:21;29.70;;;21.90;;
67372;SDS011;54257;54.496;18.412;2022-10-16T09:59:50;28.90;;;22.20;;
67372;SDS011;54257;54.496;18.412;2022-10-16T10:02:19;29.50;;;22.70;;
67372;SDS011;54257;54.496;18.412;2022-10-16T10:04:55;29.10;;;22.10;;
67372;SDS011;54257;54.496;18.412;2022-10-16T10:07:27;32.70;;;23.50;;
67372;SDS011;54257;54.496;18.412;2022-10-16T10:10:04;31.30;;;22.80;;
67372;SDS011;54257;54.496;18.412;2022-10-16T10:12:33;31.80;;;23.30;;
67372;SDS011;54257;54.496;18.412;2022-10-16T10:15:12;30.90;;;22.60;;
67372;SDS011;54257;54.496;18.412;2022-10-16T10:17:47;29.10;;;21.80;;
67372;SDS011;54257;54.496;18.412;2022-10-16T10:20:35;29.10;;;21.60;;
67372;SDS011;54257;54.496;18.412;2022-10-16T10:23:21;27.50;;;21.10;;
67372;SDS011;54257;54.496;18.412;2022-10-16T10:31:34;30.00;;;22.00;;
67372;SDS011;54257;54.496;18.412;2022-10-16T10:34:25;28.70;;;22.40;;
67372;SDS011;54257;54.496;18.412;2022-10-16T10:36:59;33.90;;;23.50;;
67372;SDS011;54257;54.496;18.412;2022-10-16T10:39:43;31.30;;;23.20;;
67372;SDS011;54257;54.496;18.412;2022-10-16T10:42:27;32.30;;;22.20;;
67372;SDS011;54257;54.496;18.412;2022-10-16T10:50:37;28.30;;;21.00;;
67372;SDS011;54257;54.496;18.412;2022-10-16T11:01:26;24.90;;;19.60;;
67372;SDS011;54257;54.496;18.412;2022-10-16T11:07:05;24.20;;;18.50;;
67372;SDS011;54257;54.496;18.412;2022-10-16T11:09:44;22.90;;;18.50;;
67372;SDS011;54257;54.496;18.412;2022-10-16T11:12:19;19.60;;;17.00;;
67372;SDS011;54257;54.496;18.412;2022-10-16T11:17:29;15.60;;;13.70;;
67372;SDS011;54257;54.496;18.412;2022-10-16T11:20:24;17.20;;;15.40;;
67372;SDS011;54257;54.496;18.412;2022-10-16T11:22:56;15.90;;;14.20;;
67372;SDS011;54257;54.496;18.412;2022-10-16T11:25:37;19.20;;;14.30;;
67372;SDS011;54257;54.496;18.412;2022-10-16T11:28:11;16.50;;;14.30;;
67372;SDS011;54257;54.496;18.412;2022-10-16T11:30:53;14.20;;;12.70;;
67372;SDS011;54257;54.496;18.412;2022-10-16T11:36:33;15.40;;;13.80;;
67372;SDS011;54257;54.496;18.412;2022-10-16T11:39:25;13.20;;;11.80;;
67372;SDS011;54257;54.496;18.412;2022-10-16T11:42:41;13.30;;;11.40;;
67372;SDS011;54257;54.496;18.412;2022-10-16T11:56:17;10.90;;;9.80;;
67372;SDS011;54257;54.496;18.412;2022-10-16T11:59:00;11.80;;;10.60;;
67372;SDS011;54257;54.496;18.412;2022-10-16T12:06:41;10.60;;;9.50;;
67372;SDS011;54257;54.496;18.412;2022-10-16T12:09:32;10.20;;;9.20;;
67372;SDS011;54257;54.496;18.412;2022-10-16T12:12:02;9.30;;;8.30;;
67372;SDS011;54257;54.496;18.412;2022-10-16T12:14:34;9.00;;;8.10;;
67372;SDS011;54257;54.496;18.412;2022-10-16T12:17:25;8.80;;;8.00;;
67372;SDS011;54257;54.496;18.412;2022-10-16T12:22:48;8.60;;;7.80;;
67372;SDS011;54257;54.496;18.412;2022-10-16T12:25:27;9.00;;;8.20;;
67372;SDS011;54257;54.496;18.412;2022-10-16T12:28:03;8.50;;;7.70;;
67372;SDS011;54257;54.496;18.412;2022-10-16T12:30:36;8.70;;;7.80;;
67372;SDS011;54257;54.496;18.412;2022-10-16T12:35:51;7.80;;;7.00;;
67372;SDS011;54257;54.496;18.412;2022-10-16T12:41:00;7.40;;;6.80;;
67372;SDS011;54257;54.496;18.412;2022-10-16T12:43:42;7.30;;;6.60;;
67372;SDS011;54257;54.496;18.412;2022-10-16T12:48:42;7.40;;;6.80;;
67372;SDS011;54257;54.496;18.412;2022-10-16T12:51:11;7.40;;;6.70;;
67372;SDS011;54257;54.496;18.412;2022-10-16T12:53:57;6.80;;;6.20;;
67372;SDS011;54257;54.496;18.412;2022-10-16T13:15:16;7.70;;;6.70;;
67372;SDS011;54257;54.496;18.412;2022-10-16T13:18:27;8.40;;;6.10;;
67372;SDS011;54257;54.496;18.412;2022-10-16T13:29:04;6.40;;;5.70;;
67372;SDS011;54257;54.496;18.412;2022-10-16T13:31:32;6.90;;;6.00;;
67372;SDS011;54257;54.496;18.412;2022-10-16T13:34:00;7.00;;;6.40;;
67372;SDS011;54257;54.496;18.412;2022-10-16T13:36:30;6.80;;;6.20;;
67372;SDS011;54257;54.496;18.412;2022-10-16T13:39:15;7.80;;;7.10;;
67372;SDS011;54257;54.496;18.412;2022-10-16T13:44:26;8.90;;;7.10;;
67372;SDS011;54257;54.496;18.412;2022-10-16T13:47:00;7.50;;;6.70;;
67372;SDS011;54257;54.496;18.412;2022-10-16T13:49:29;8.10;;;7.10;;
67372;SDS011;54257;54.496;18.412;2022-10-16T13:51:57;7.70;;;6.70;;
67372;SDS011;54257;54.496;18.412;2022-10-16T13:54:26;9.40;;;6.80;;
67372;SDS011;54257;54.496;18.412;2022-10-16T13:57:04;7.10;;;6.50;;
67372;SDS011;54257;54.496;18.412;2022-10-16T13:59:33;7.10;;;6.10;;
67372;SDS011;54257;54.496;18.412;2022-10-16T14:02:05;8.30;;;7.10;;
67372;SDS011;54257;54.496;18.412;2022-10-16T14:04:46;7.50;;;6.30;;
67372;SDS011;54257;54.496;18.412;2022-10-16T14:07:17;7.30;;;6.60;;
67372;SDS011;54257;54.496;18.412;2022-10-16T14:09:54;6.50;;;5.80;;
67372;SDS011;54257;54.496;18.412;2022-10-16T14:12:22;7.30;;;6.70;;
67372;SDS011;54257;54.496;18.412;2022-10-16T14:14:50;7.80;;;7.10;;
67372;SDS011;54257;54.496;18.412;2022-10-16T14:19:47;7.30;;;6.60;;
67372;SDS011;54257;54.496;18.412;2022-10-16T14:22:26;7.40;;;6.60;;
67372;SDS011;54257;54.496;18.412;2022-10-16T14:25:19;8.10;;;6.70;;
67372;SDS011;54257;54.496;18.412;2022-10-16T14:30:29;8.30;;;6.90;;
67372;SDS011;54257;54.496;18.412;2022-10-16T14:33:00;9.10;;;7.10;;
67372;SDS011;54257;54.496;18.412;2022-10-16T14:35:36;7.30;;;6.50;;
67372;SDS011;54257;54.496;18.412;2022-10-16T14:38:06;8.80;;;6.30;;
67372;SDS011;54257;54.496;18.412;2022-10-16T14:40:46;8.60;;;6.10;;
67372;SDS011;54257;54.496;18.412;2022-10-16T14:43:20;7.90;;;6.20;;
67372;SDS011;54257;54.496;18.412;2022-10-16T14:45:55;7.50;;;6.80;;
67372;SDS011;54257;54.496;18.412;2022-10-16T14:48:23;8.50;;;7.10;;
67372;SDS011;54257;54.496;18.412;2022-10-16T14:50:51;9.40;;;7.70;;
67372;SDS011;54257;54.496;18.412;2022-10-16T14:53:18;8.00;;;6.40;;
67372;SDS011;54257;54.496;18.412;2022-10-16T14:55:45;8.20;;;7.40;;
67372;SDS011;54257;54.496;18.412;2022-10-16T14:58:15;8.50;;;7.60;;
67372;SDS011;54257;54.496;18.412;2022-10-16T15:00:51;8.10;;;7.30;;
67372;SDS011;54257;54.496;18.412;2022-10-16T15:03:19;8.60;;;7.70;;
67372;SDS011;54257;54.496;18.412;2022-10-16T15:05:49;9.60;;;8.60;;
67372;SDS011;54257;54.496;18.412;2022-10-16T15:08:16;9.30;;;8.30;;
67372;SDS011;54257;54.496;18.412;2022-10-16T15:10:44;10.20;;;8.30;;
67372;SDS011;54257;54.496;18.412;2022-10-16T15:13:11;9.90;;;8.90;;
67372;SDS011;54257;54.496;18.412;2022-10-16T15:15:44;9.40;;;8.40;;
67372;SDS011;54257;54.496;18.412;2022-10-16T15:18:15;10.00;;;8.80;;
67372;SDS011;54257;54.496;18.412;2022-10-16T15:20:50;12.70;;;8.70;;
67372;SDS011;54257;54.496;18.412;2022-10-16T15:23:19;10.60;;;9.00;;
67372;SDS011;54257;54.496;18.412;2022-10-16T15:25:52;11.50;;;9.50;;
67372;SDS011;54257;54.496;18.412;2022-10-16T15:28:21;10.60;;;8.60;;
67372;SDS011;54257;54.496;18.412;2022-10-16T15:30:50;9.20;;;8.30;;
67372;SDS011;54257;54.496;18.412;2022-10-16T15:33:23;12.10;;;9.50;;
67372;SDS011;54257;54.496;18.412;2022-10-16T15:35:54;11.10;;;10.00;;
67372;SDS011;54257;54.496;18.412;2022-10-16T15:38:21;11.60;;;10.40;;
67372;SDS011;54257;54.496;18.412;2022-10-16T15:40:49;10.50;;;9.50;;
67372;SDS011;54257;54.496;18.412;2022-10-16T15:43:16;11.40;;;10.30;;
67372;SDS011;54257;54.496;18.412;2022-10-16T15:45:58;11.90;;;10.00;;
67372;SDS011;54257;54.496;18.412;2022-10-16T15:48:37;11.80;;;10.00;;
67372;SDS011;54257;54.496;18.412;2022-10-16T15:51:05;13.30;;;9.90;;
67372;SDS011;54257;54.496;18.412;2022-10-16T15:53:34;11.80;;;9.90;;
67372;SDS011;54257;54.496;18.412;2022-10-16T15:56:03;11.90;;;10.70;;
67372;SDS011;54257;54.496;18.412;2022-10-16T15:58:33;12.70;;;11.10;;
67372;SDS011;54257;54.496;18.412;2022-10-16T16:01:01;12.00;;;10.80;;
67372;SDS011;54257;54.496;18.412;2022-10-16T16:03:30;13.00;;;11.40;;
67372;SDS011;54257;54.496;18.412;2022-10-16T16:05:57;11.50;;;10.40;;
67372;SDS011;54257;54.496;18.412;2022-10-16T16:08:31;12.20;;;11.00;;
67372;SDS011;54257;54.496;18.412;2022-10-16T16:11:00;13.90;;;10.40;;
67372;SDS011;54257;54.496;18.412;2022-10-16T16:13:31;12.00;;;10.70;;
67372;SDS011;54257;54.496;18.412;2022-10-16T16:15:58;15.00;;;11.40;;
67372;SDS011;54257;54.496;18.412;2022-10-16T16:18:25;11.40;;;10.30;;
67372;SDS011;54257;54.496;18.412;2022-10-16T16:20:52;12.80;;;11.50;;
67372;SDS011;54257;54.496;18.412;2022-10-16T16:23:20;12.80;;;11.30;;
67372;SDS011;54257;54.496;18.412;2022-10-16T16:28:40;13.50;;;12.10;;
67372;SDS011;54257;54.496;18.412;2022-10-16T16:31:08;16.20;;;12.00;;
67372;SDS011;54257;54.496;18.412;2022-10-16T16:33:35;13.70;;;12.30;;
67372;SDS011;54257;54.496;18.412;2022-10-16T16:36:03;15.20;;;12.00;;
67372;SDS011;54257;54.496;18.412;2022-10-16T16:38:33;15.40;;;12.90;;
67372;SDS011;54257;54.496;18.412;2022-10-16T16:41:10;16.60;;;13.30;;
67372;SDS011;54257;54.496;18.412;2022-10-16T16:43:42;15.70;;;14.00;;
67372;SDS011;54257;54.496;18.412;2022-10-16T16:46:10;13.70;;;12.30;;
67372;SDS011;54257;54.496;18.412;2022-10-16T16:48:40;21.50;;;12.80;;
67372;SDS011;54257;54.496;18.412;2022-10-16T16:51:12;13.20;;;11.80;;
67372;SDS011;54257;54.496;18.412;2022-10-16T16:53:44;14.90;;;13.10;;